LFLS/GNB METAR and TAF weather

Enter ICAO airport designator
Station Type Date Time Source
LFLS METAR 2022/01/26 13:30 UTC NOAA

LFLS 261330Z AUTO 34008KT 310V010 CAVOK 07/M02 Q1030 NOSIG


Station Type Date Time Source
LFLS Decoded METAR 2022/01/26 13:30 UTC NOAA

Grenoble / St. Geoirs, France (LFLS) 45-22N 005-20E 386M
Jan 26, 2022 - 08:30 AM EST / 2022.01.26 1330 UTC
Wind: from the NNW (340 degrees) at 9 MPH (8 KT) (direction variable):0
Visibility: greater than 7 mile(s):0
Temperature: 44 F (7 C)
Dew Point: 28 F (-2 C)
Relative Humidity: 52%
Pressure (altimeter): 30.42 in. Hg (1030 hPa)
ob: LFLS 261330Z AUTO 34008KT 310V010 CAVOK 07/M02 Q1030 NOSIG
cycle: 13

Station Type Date Time Source
LFLS TAF 2022/01/26 09:21 UTC NOAA

TAF LFLS 260800Z 2609/2709 VRB03KT 8000 NSC PROB30
TEMPO 2622/2709 4000 BR

Example: see airport list